Time;durP1;ratioP1;P1;durP2;ratioP2;P2;SDS_P1;SDS_P2;PMS_P1;PMS_P2;Temp;Humidity;BMP_temperature;BMP_pressure;BME280_temperature;BME280_humidity;BME280_pressure;Samples;Min_cycle;Max_cycle;Signal;HPM_P1;HPM_P2
2022/12/26 00:00:36;;;;;;;5.63;4.00;;;30.90;92.00;;;;;;5054888;28;20867;-87
2022/12/26 00:03:03;;;;;;;6.60;3.90;;;31.10;92.60;;;;;;5031691;28;20410;-86
2022/12/26 00:05:36;;;;;;;7.03;3.90;;;31.20;92.70;;;;;;5033421;28;20396;-87
2022/12/26 00:08:03;;;;;;;5.60;4.00;;;31.60;91.30;;;;;;5046899;28;20386;-88
2022/12/26 00:10:30;;;;;;;5.13;3.70;;;31.90;90.80;;;;;;5035247;28;20451;-88
2022/12/26 00:12:57;;;;;;;5.30;3.50;;;32.20;86.70;;;;;;5046844;28;20953;-88
2022/12/26 00:15:24;;;;;;;6.50;3.90;;;32.50;84.50;;;;;;5040709;28;20421;-89
2022/12/26 00:17:51;;;;;;;4.20;3.10;;;32.80;81.40;;;;;;5038038;28;20961;-89
2022/12/26 00:20:18;;;;;;;3.55;3.03;;;33.00;77.70;;;;;;5039435;28;20519;-85
2022/12/26 00:22:45;;;;;;;6.43;3.80;;;33.40;74.00;;;;;;5066597;28;20546;-87
2022/12/26 00:25:11;;;;;;;5.95;3.95;;;33.80;76.60;;;;;;5054526;28;20392;-81
2022/12/26 00:27:38;;;;;;;6.80;3.83;;;34.10;76.70;;;;;;5056784;28;20394;-85
2022/12/26 00:30:06;;;;;;;5.05;3.90;;;34.00;74.40;;;;;;5065902;28;20458;-85
2022/12/26 00:32:33;;;;;;;4.20;3.80;;;33.80;72.90;;;;;;5059761;28;20384;-84
2022/12/26 00:35:00;;;;;;;4.78;3.10;;;33.30;72.10;;;;;;5050252;28;20473;-86
2022/12/26 00:37:27;;;;;;;5.70;3.40;;;33.30;69.10;;;;;;5069090;28;20378;-85
2022/12/26 00:39:55;;;;;;;3.67;3.00;;;33.70;67.80;;;;;;5071038;28;20370;-84
2022/12/26 00:42:22;;;;;;;4.73;3.20;;;33.80;64.30;;;;;;5057651;28;20395;-83
2022/12/26 00:44:48;;;;;;;3.72;3.00;;;34.00;65.70;;;;;;5066133;28;20482;-85
2022/12/26 00:47:15;;;;;;;3.38;2.80;;;34.40;63.70;;;;;;5070709;28;20373;-83
2022/12/26 00:49:42;;;;;;;3.08;2.45;;;34.20;62.20;;;;;;5065821;28;20465;-83
2022/12/26 00:52:09;;;;;;;3.15;2.70;;;34.10;60.80;;;;;;5053137;28;20918;-82
2022/12/26 00:54:36;;;;;;;3.35;2.50;;;33.90;60.40;;;;;;5056279;28;20402;-85
2022/12/26 00:57:03;;;;;;;5.00;2.67;;;33.80;58.60;;;;;;5057827;28;20435;-85
2022/12/26 00:59:30;;;;;;;4.70;2.70;;;33.70;60.30;;;;;;5061561;28;20755;-86
2022/12/26 01:01:57;;;;;;;3.72;2.80;;;33.60;60.60;;;;;;5058512;28;20388;-86
2022/12/26 01:04:24;;;;;;;3.13;2.83;;;33.60;60.90;;;;;;5049876;28;20393;-85
2022/12/26 01:06:51;;;;;;;4.20;2.80;;;33.70;60.10;;;;;;5045761;28;20486;-84
2022/12/26 01:09:18;;;;;;;3.90;2.72;;;33.70;60.30;;;;;;5054169;28;20743;-85
2022/12/26 01:11:45;;;;;;;2.73;2.43;;;33.90;60.40;;;;;;5050603;28;20379;-86
2022/12/26 01:14:17;;;;;;;3.25;2.63;;;34.30;58.70;;;;;;5047225;28;20392;-85
2022/12/26 01:16:45;;;;;;;3.08;2.58;;;35.00;57.20;;;;;;5050665;28;20400;-84
2022/12/26 01:19:13;;;;;;;2.93;2.40;;;35.20;55.50;;;;;;5052530;28;20382;-85
2022/12/26 01:21:41;;;;;;;3.95;2.67;;;35.50;55.30;;;;;;5054484;28;20380;-85
2022/12/26 01:24:08;;;;;;;2.90;2.60;;;35.70;55.80;;;;;;5059864;28;20404;-85
2022/12/26 01:26:35;;;;;;;4.50;2.70;;;36.10;53.80;;;;;;5062479;28;20428;-84
2022/12/26 01:29:02;;;;;;;2.30;2.00;;;35.90;55.20;;;;;;5046348;28;20380;-85
2022/12/26 01:31:29;;;;;;;3.17;2.47;;;36.50;50.30;;;;;;5042990;28;20405;-85
2022/12/26 01:33:56;;;;;;;2.65;2.45;;;36.80;49.80;;;;;;5063113;28;20502;-84
2022/12/26 01:36:23;;;;;;;2.90;2.53;;;37.20;50.40;;;;;;5045761;28;20445;-85
2022/12/26 01:38:50;;;;;;;3.45;2.70;;;37.20;51.40;;;;;;5051104;28;20401;-87
2022/12/26 01:41:20;;;;;;;4.13;2.58;;;37.00;51.00;;;;;;5067038;28;20389;-87
2022/12/26 01:43:48;;;;;;;4.10;2.63;;;36.60;51.70;;;;;;5056355;28;20413;-84
2022/12/26 01:46:18;;;;;;;3.85;2.63;;;36.80;51.10;;;;;;5047906;28;20383;-88
2022/12/26 01:48:46;;;;;;;3.50;2.67;;;37.20;50.40;;;;;;5053846;28;20456;-86
2022/12/26 01:51:15;;;;;;;4.03;2.70;;;37.40;50.00;;;;;;5032680;28;20470;-87
2022/12/26 01:53:53;;;;;;;2.97;2.67;;;37.30;50.90;;;;;;5040106;28;20421;-86
2022/12/26 01:56:27;;;;;;;3.28;2.50;;;36.90;50.00;;;;;;5058014;28;20392;-86
2022/12/26 01:59:01;;;;;;;4.40;2.60;;;36.70;51.40;;;;;;5064927;28;20862;-86
2022/12/26 02:01:32;;;;;;;2.50;2.30;;;36.70;51.60;;;;;;5059488;28;20776;-86
2022/12/26 02:06:48;;;;;;;3.47;3.17;;;38.20;48.30;;;;;;5071777;28;20838;-85
2022/12/26 02:09:16;;;;;;;3.97;3.50;;;39.10;50.10;;;;;;5071255;28;20412;-87
2022/12/26 02:11:47;;;;;;;3.80;3.40;;;39.00;50.10;;;;;;5056747;28;20385;-86
2022/12/26 02:14:15;;;;;;;4.20;3.80;;;39.10;50.70;;;;;;5062458;28;20397;-87
2022/12/26 02:16:42;;;;;;;5.13;3.70;;;39.50;50.40;;;;;;5058957;28;20395;-88
2022/12/26 02:19:26;;;;;;;4.90;4.50;;;40.10;49.70;;;;;;5064801;28;20388;-86
2022/12/26 02:22:08;;;;;;;5.17;4.77;;;40.60;49.30;;;;;;5047916;28;20369;-88
2022/12/26 02:25:27;;;;;;;5.35;4.30;;;41.00;48.80;;;;;;5062041;28;20393;-87
2022/12/26 02:28:25;;;;;;;3.72;3.30;;;41.20;46.00;;;;;;4913766;29;20458;-82
2022/12/26 02:31:06;;;;;;;3.38;2.80;;;41.20;43.90;;;;;;4883332;29;20398;-85
2022/12/26 02:33:55;;;;;;;3.50;3.10;;;41.30;41.90;;;;;;4884792;29;20907;-85
2022/12/26 02:36:36;;;;;;;3.90;3.40;;;41.40;42.90;;;;;;4875501;29;20406;-83
2022/12/26 02:39:08;;;;;;;3.90;3.50;;;41.30;43.50;;;;;;4875081;29;20429;-81
2022/12/26 02:41:55;;;;;;;5.22;3.30;;;40.70;43.90;;;;;;4875374;29;20426;-82
2022/12/26 02:47:48;;;;;;;3.78;3.08;;;40.50;44.50;;;;;;4866611;29;20425;-84
2022/12/26 03:14:06;;;;;;;2.55;2.20;;;41.10;42.20;;;;;;4999795;28;20390;-82
2022/12/26 03:19:21;;;;;;;2.53;1.95;;;41.60;39.20;;;;;;4996265;28;20410;-84
2022/12/26 03:21:49;;;;;;;2.45;2.03;;;42.00;38.30;;;;;;4978558;28;20422;-87
2022/12/26 03:24:17;;;;;;;1.98;1.80;;;42.50;36.80;;;;;;4995626;28;20418;-83
2022/12/26 03:26:53;;;;;;;1.98;1.60;;;42.30;36.80;;;;;;4987371;28;20551;-80
2022/12/26 03:32:11;;;;;;;1.60;1.50;;;42.20;35.20;;;;;;4999147;28;20366;-87
2022/12/26 03:34:42;;;;;;;1.48;1.38;;;42.60;34.50;;;;;;4992330;28;20393;-89
2022/12/26 03:37:35;;;;;;;1.55;1.40;;;43.00;34.20;;;;;;4982745;28;21024;-80
2022/12/26 04:19:35;;;;;;;1.17;0.70;;;42.30;32.10;;;;;;4971570;28;20453;-83
2022/12/26 04:45:20;;;;;;;1.40;0.70;;;42.70;32.20;;;;;;5044271;28;20855;-85
2022/12/26 04:50:35;;;;;;;1.00;0.60;;;42.90;31.30;;;;;;5050461;28;20387;-85
2022/12/26 04:53:02;;;;;;;1.05;0.63;;;42.50;32.20;;;;;;5054588;28;20382;-90
2022/12/26 04:55:32;;;;;;;1.23;0.60;;;42.70;32.00;;;;;;5059884;28;20390;-86
2022/12/26 04:58:00;;;;;;;0.80;0.50;;;42.70;32.20;;;;;;5056110;28;20382;-85
2022/12/26 05:00:28;;;;;;;0.70;0.50;;;42.90;31.80;;;;;;5042766;28;20392;-85
2022/12/26 05:11:26;;;;;;;0.63;0.40;;;42.90;31.80;;;;;;4967325;28;20360;-81
2022/12/26 05:13:55;;;;;;;1.00;0.50;;;42.50;31.40;;;;;;4980406;28;20935;-82
2022/12/26 05:30:27;;;;;;;0.80;0.50;;;41.80;31.90;;;;;;4968071;28;20442;-88
2022/12/26 05:35:40;;;;;;;0.73;0.50;;;41.60;32.40;;;;;;4968061;28;20758;-86
2022/12/26 05:38:09;;;;;;;2.53;0.57;;;41.80;32.20;;;;;;4949141;28;20395;-87
2022/12/26 05:40:36;;;;;;;2.35;0.60;;;42.00;31.80;;;;;;4962902;28;20400;-86
2022/12/26 05:43:03;;;;;;;0.90;0.50;;;41.80;31.40;;;;;;4971314;28;20498;-88
2022/12/26 05:45:30;;;;;;;1.00;0.50;;;42.00;31.50;;;;;;5013959;28;20391;-87
2022/12/26 05:48:01;;;;;;;0.47;0.40;;;42.10;30.90;;;;;;5054566;28;20720;-83
2022/12/26 05:50:29;;;;;;;1.10;0.60;;;42.50;31.20;;;;;;5050479;28;20622;-86
2022/12/26 05:52:59;;;;;;;1.90;0.52;;;42.50;31.00;;;;;;5041662;28;20428;-83
2022/12/26 05:55:26;;;;;;;0.70;0.40;;;42.40;30.90;;;;;;5052918;28;20433;-83
2022/12/26 05:57:53;;;;;;;1.10;0.50;;;42.70;31.30;;;;;;5052986;28;20398;-83
2022/12/26 06:00:21;;;;;;;3.13;0.60;;;42.60;31.20;;;;;;5051672;28;20388;-84
2022/12/26 06:02:47;;;;;;;0.80;0.50;;;42.50;31.80;;;;;;5051630;28;20395;-85
2022/12/26 06:05:14;;;;;;;1.75;0.47;;;42.30;31.10;;;;;;5046187;28;20769;-85
2022/12/26 06:07:41;;;;;;;3.20;0.63;;;42.30;31.20;;;;;;5031522;28;20855;-84
2022/12/26 06:10:09;;;;;;;0.77;0.60;;;42.20;31.80;;;;;;5044714;28;20414;-82
2022/12/26 06:12:36;;;;;;;1.17;0.52;;;42.00;32.00;;;;;;5052827;28;20459;-82
2022/12/26 06:15:03;;;;;;;0.60;0.60;;;41.80;32.40;;;;;;5050294;28;20863;-83
2022/12/26 06:17:30;;;;;;;1.10;0.50;;;41.30;31.80;;;;;;5042058;28;20469;-82
2022/12/26 06:19:57;;;;;;;0.82;0.60;;;41.30;32.10;;;;;;5041949;28;20397;-82
2022/12/26 06:22:24;;;;;;;1.50;0.50;;;41.30;32.40;;;;;;5062891;28;20392;-82
2022/12/26 06:24:51;;;;;;;2.00;0.50;;;41.10;32.00;;;;;;5056078;28;20374;-85
2022/12/26 06:27:18;;;;;;;0.70;0.50;;;40.60;32.70;;;;;;5051310;28;20360;-85
2022/12/26 06:29:45;;;;;;;1.75;0.68;;;40.40;32.80;;;;;;5047040;28;20421;-84
2022/12/26 06:32:12;;;;;;;1.02;0.60;;;40.70;32.70;;;;;;5049767;28;20379;-82
2022/12/26 06:34:39;;;;;;;1.00;0.60;;;;;;;;;;5047797;28;20963;-87
2022/12/26 06:37:06;;;;;;;1.00;0.60;;;;;;;;;;5041114;28;20851;-81
2022/12/26 06:39:33;;;;;;;0.77;0.68;;;40.50;32.10;;;;;;5041781;28;20396;-82
2022/12/26 06:42:00;;;;;;;1.50;0.55;;;40.40;33.60;;;;;;5045728;28;20384;-83
2022/12/26 06:44:27;;;;;;;1.60;0.60;;;40.70;33.90;;;;;;5040327;28;20409;-85
2022/12/26 06:46:54;;;;;;;1.05;0.60;;;40.60;33.10;;;;;;5040768;28;20380;-85
2022/12/26 06:49:21;;;;;;;1.00;0.50;;;;;;;;;;5038625;28;20397;-87
2022/12/26 06:51:48;;;;;;;2.13;0.68;;;40.70;33.30;;;;;;5049898;28;20739;-83
2022/12/26 06:54:15;;;;;;;1.17;0.60;;;40.50;34.00;;;;;;5048171;28;20379;-88
2022/12/26 06:56:42;;;;;;;1.60;0.60;;;40.10;33.90;;;;;;5050640;28;20398;-83
2022/12/26 06:59:11;;;;;;;1.00;0.60;;;39.80;34.50;;;;;;5047425;28;20416;-86
2022/12/26 07:01:38;;;;;;;1.60;0.68;;;39.60;33.80;;;;;;5039558;28;20731;-85
2022/12/26 07:04:05;;;;;;;0.80;0.60;;;39.30;34.10;;;;;;5027880;28;20426;-89
2022/12/26 07:06:37;;;;;;;0.98;0.50;;;39.40;34.50;;;;;;5047121;28;20396;-82
2022/12/26 07:09:08;;;;;;;0.80;0.60;;;39.10;34.30;;;;;;5039829;28;20398;-85
2022/12/26 07:11:38;;;;;;;1.10;0.60;;;39.20;34.70;;;;;;5048327;28;20717;-89
2022/12/26 07:14:06;;;;;;;1.65;0.60;;;39.20;35.00;;;;;;5044276;28;20389;-82
2022/12/26 07:16:36;;;;;;;1.37;0.60;;;39.00;35.20;;;;;;5039885;28;20416;-83
2022/12/26 07:19:04;;;;;;;1.02;0.63;;;38.70;34.60;;;;;;5045706;28;20389;-83
2022/12/26 07:21:31;;;;;;;1.50;0.60;;;38.90;35.70;;;;;;5045635;28;20422;-84
2022/12/26 07:23:58;;;;;;;1.33;0.70;;;38.90;35.60;;;;;;5047374;28;20429;-86
2022/12/26 07:26:26;;;;;;;1.40;0.60;;;38.90;35.20;;;;;;5060235;28;20383;-83
2022/12/26 07:28:57;;;;;;;1.30;0.70;;;38.40;35.90;;;;;;5050004;28;20471;-85
2022/12/26 07:31:26;;;;;;;1.30;0.70;;;38.20;36.90;;;;;;5044024;28;20376;-92
2022/12/26 07:33:55;;;;;;;1.05;0.60;;;38.20;36.80;;;;;;5050328;28;20424;-91
2022/12/26 07:36:23;;;;;;;0.93;0.68;;;38.20;37.40;;;;;;5051208;28;20419;-90
2022/12/26 07:38:50;;;;;;;1.47;0.80;;;38.00;37.60;;;;;;5045134;28;20409;-85
2022/12/26 07:44:04;;;;;;;1.95;0.60;;;37.50;37.80;;;;;;5042024;28;20494;-83
2022/12/26 07:46:32;;;;;;;1.05;0.75;;;37.30;37.20;;;;;;5040172;28;20416;-85
2022/12/26 07:48:58;;;;;;;2.00;0.70;;;37.30;38.10;;;;;;5041873;28;20395;-83
2022/12/26 07:51:25;;;;;;;2.00;0.70;;;37.10;38.00;;;;;;5042580;28;20477;-87
2022/12/26 07:53:53;;;;;;;1.55;0.70;;;37.00;38.80;;;;;;5050687;28;20844;-87
2022/12/26 07:56:20;;;;;;;2.35;0.80;;;36.80;37.50;;;;;;5035639;28;20387;-88
2022/12/26 07:58:50;;;;;;;1.80;0.70;;;36.60;38.20;;;;;;5048687;28;20388;-83
2022/12/26 08:01:18;;;;;;;2.28;0.75;;;36.20;38.40;;;;;;5033723;28;20781;-86
2022/12/26 08:03:47;;;;;;;1.80;0.90;;;36.00;38.60;;;;;;5024534;28;20799;-83
2022/12/26 08:06:14;;;;;;;1.73;0.80;;;35.90;39.20;;;;;;5043645;28;20392;-85
2022/12/26 08:08:41;;;;;;;1.35;0.80;;;;;;;;;;5045500;28;20399;-83
2022/12/26 08:11:11;;;;;;;1.40;0.80;;;35.70;39.20;;;;;;5047974;28;20383;-85
2022/12/26 08:13:38;;;;;;;1.80;0.80;;;35.50;38.80;;;;;;5049006;28;20395;-87
2022/12/26 08:16:11;;;;;;;3.15;0.90;;;35.10;39.90;;;;;;5047302;28;20459;-83
2022/12/26 08:18:38;;;;;;;1.65;0.70;;;;;;;;;;5047258;28;20395;-82
2022/12/26 08:21:05;;;;;;;1.95;0.80;;;;;;;;;;5035177;28;20396;-85
2022/12/26 08:23:33;;;;;;;1.42;0.80;;;34.10;41.60;;;;;;5041753;28;20878;-92
2022/12/26 08:26:05;;;;;;;1.00;0.70;;;33.80;41.90;;;;;;5042606;28;20401;-83
2022/12/26 08:28:32;;;;;;;1.45;0.70;;;33.50;42.00;;;;;;5039448;28;20465;-87
2022/12/26 08:30:59;;;;;;;1.75;0.70;;;33.10;40.50;;;;;;5043982;28;20418;-84
2022/12/26 08:33:26;;;;;;;1.63;0.73;;;32.90;40.00;;;;;;5036740;28;20395;-87
2022/12/26 08:35:53;;;;;;;1.50;0.70;;;;;;;;;;5040428;28;20392;-84
2022/12/26 08:38:20;;;;;;;5.50;0.80;;;32.30;39.80;;;;;;5046969;28;20384;-83
2022/12/26 08:40:55;;;;;;;0.70;0.60;;;31.90;40.90;;;;;;5043038;28;20380;-82
2022/12/26 08:43:23;;;;;;;1.33;0.60;;;31.60;40.90;;;;;;5046798;28;20402;-86
2022/12/26 08:46:11;;;;;;;1.52;0.70;;;31.30;41.50;;;;;;5043249;28;20415;-82
2022/12/26 08:48:39;;;;;;;2.22;0.70;;;31.10;42.40;;;;;;5043698;28;20386;-83
2022/12/26 08:51:10;;;;;;;1.27;0.60;;;30.90;43.30;;;;;;5053536;28;20380;-83
2022/12/26 08:53:37;;;;;;;0.85;0.60;;;30.70;42.80;;;;;;5031589;28;20388;-84
2022/12/26 08:56:06;;;;;;;1.80;0.60;;;30.60;43.20;;;;;;5032329;28;20483;-84
2022/12/26 08:58:34;;;;;;;1.73;0.80;;;30.40;43.70;;;;;;5045969;28;20381;-84
2022/12/26 09:01:15;;;;;;;2.40;0.70;;;30.30;45.10;;;;;;5051314;28;20371;-85
2022/12/26 09:03:44;;;;;;;1.83;0.88;;;29.90;45.20;;;;;;5047381;28;20458;-84
2022/12/26 09:06:12;;;;;;;1.90;0.80;;;29.60;45.70;;;;;;5042843;28;20724;-84
2022/12/26 09:08:41;;;;;;;1.73;0.90;;;29.40;46.50;;;;;;5053297;28;20790;-83
2022/12/26 09:11:11;;;;;;;2.38;1.00;;;29.30;47.70;;;;;;5051390;28;20380;-83
2022/12/26 09:13:38;;;;;;;1.67;1.10;;;29.00;48.40;;;;;;5051971;28;20399;-85
2022/12/26 09:16:16;;;;;;;1.90;1.00;;;28.80;48.30;;;;;;5048401;28;20714;-85
2022/12/26 09:18:45;;;;;;;2.50;1.00;;;28.70;48.40;;;;;;5055946;28;20748;-85
2022/12/26 09:21:13;;;;;;;1.85;0.90;;;28.60;49.60;;;;;;5061658;28;20391;-86
2022/12/26 09:23:41;;;;;;;2.17;0.90;;;28.30;49.70;;;;;;5049919;28;20406;-86
2022/12/26 09:26:19;;;;;;;5.05;1.10;;;28.00;50.70;;;;;;5034693;28;20407;-84
2022/12/26 09:28:50;;;;;;;3.20;1.00;;;28.00;50.80;;;;;;5034550;28;20775;-84
2022/12/26 09:31:20;;;;;;;1.85;0.80;;;27.80;52.00;;;;;;5051789;28;20383;-86
2022/12/26 09:33:47;;;;;;;3.22;0.90;;;27.80;52.00;;;;;;5045868;28;20423;-87
2022/12/26 09:36:17;;;;;;;1.93;0.90;;;27.80;53.00;;;;;;5052339;28;20419;-86
2022/12/26 09:38:48;;;;;;;4.28;1.02;;;27.60;53.10;;;;;;5041509;28;20396;-87
2022/12/26 09:41:29;;;;;;;3.03;1.00;;;27.40;53.60;;;;;;5052387;28;20407;-83
2022/12/26 09:44:05;;;;;;;2.03;1.00;;;27.30;54.10;;;;;;5052589;28;20399;-85
2022/12/26 09:46:53;;;;;;;2.70;0.95;;;27.30;54.60;;;;;;5051510;28;20384;-87
2022/12/26 09:49:27;;;;;;;2.22;0.98;;;27.20;55.40;;;;;;5051000;28;20471;-85
2022/12/26 09:51:59;;;;;;;3.80;1.15;;;27.00;55.00;;;;;;5052449;28;20360;-86
2022/12/26 09:54:58;;;;;;;2.67;1.10;;;26.80;55.40;;;;;;5050961;28;20429;-83
2022/12/26 09:57:50;;;;;;;3.03;1.00;;;26.80;56.70;;;;;;5050222;28;20771;-88
2022/12/26 10:00:27;;;;;;;2.92;0.95;;;26.70;57.10;;;;;;5025419;28;20383;-89
2022/12/26 10:02:56;;;;;;;2.80;1.00;;;26.60;57.00;;;;;;5045078;28;20494;-90
2022/12/26 10:05:30;;;;;;;2.40;1.00;;;26.50;57.50;;;;;;5052571;28;20482;-90
2022/12/26 10:08:28;;;;;;;2.30;1.10;;;26.40;58.00;;;;;;5050917;28;21083;-85
2022/12/26 10:11:02;;;;;;;2.83;0.90;;;26.30;58.40;;;;;;5046530;28;20399;-88
2022/12/26 10:14:08;;;;;;;2.63;1.10;;;26.10;58.00;;;;;;5051564;28;20438;-86
2022/12/26 10:16:53;;;;;;;3.03;1.05;;;26.10;59.10;;;;;;5046228;28;20414;-86
2022/12/26 10:19:27;;;;;;;2.70;0.98;;;26.00;59.50;;;;;;5052113;28;20777;-83
2022/12/26 10:22:00;;;;;;;1.85;0.90;;;25.90;59.40;;;;;;5050650;28;20388;-85
2022/12/26 10:24:33;;;;;;;4.00;2.00;;;25.90;60.10;;;;;;5051567;28;20467;-84
2022/12/26 10:27:05;;;;;;;3.40;1.60;;;25.80;60.40;;;;;;5042893;28;20376;-89
2022/12/26 10:30:04;;;;;;;2.53;1.00;;;25.70;60.10;;;;;;5052027;28;20376;-86
2022/12/26 10:32:47;;;;;;;2.92;1.00;;;25.70;61.10;;;;;;4945138;28;20388;-85
2022/12/26 10:35:41;;;;;;;3.22;1.00;;;25.50;61.30;;;;;;4952325;28;20436;-92
2022/12/26 10:38:15;;;;;;;1.67;1.00;;;25.50;61.90;;;;;;4952409;28;20392;-87
2022/12/26 10:40:49;;;;;;;2.85;1.02;;;25.40;62.20;;;;;;4959847;28;20451;-90
2022/12/26 10:43:32;;;;;;;4.33;1.50;;;25.30;61.90;;;;;;4935255;28;20431;-82
2022/12/26 10:46:39;;;;;;;2.63;1.08;;;25.30;62.90;;;;;;4956534;28;20960;-88
2022/12/26 10:49:14;;;;;;;3.25;1.17;;;25.20;63.00;;;;;;4951430;28;20479;-88
2022/12/26 10:51:41;;;;;;;2.67;1.20;;;25.10;63.00;;;;;;4953083;28;20415;-86
2022/12/26 10:54:16;;;;;;;2.15;0.90;;;25.00;63.70;;;;;;4959117;28;20478;-85
2022/12/26 10:56:47;;;;;;;2.83;1.23;;;25.00;64.10;;;;;;4953540;28;20958;-87
2022/12/26 10:59:20;;;;;;;2.50;1.10;;;24.90;64.00;;;;;;4956141;28;20407;-86
2022/12/26 11:01:48;;;;;;;3.60;1.20;;;24.90;65.00;;;;;;4944548;28;20404;-85
2022/12/26 11:04:21;;;;;;;3.27;1.13;;;24.80;64.50;;;;;;4952711;28;20545;-85
2022/12/26 11:06:53;;;;;;;2.60;1.20;;;24.70;65.10;;;;;;4951219;28;20404;-85
2022/12/26 11:09:40;;;;;;;2.22;1.08;;;24.50;65.20;;;;;;5005708;28;20482;-85
2022/12/26 11:12:24;;;;;;;2.70;1.10;;;24.70;66.20;;;;;;5024330;28;20792;-85
2022/12/26 11:14:59;;;;;;;4.15;1.50;;;24.60;66.20;;;;;;5030134;28;20389;-86
2022/12/26 11:17:33;;;;;;;4.20;1.48;;;24.60;67.30;;;;;;5028724;28;20393;-85
2022/12/26 11:20:24;;;;;;;2.72;1.40;;;24.50;67.10;;;;;;5020725;28;20395;-86
2022/12/26 11:22:51;;;;;;;3.42;1.42;;;24.50;67.90;;;;;;5032807;28;20414;-86
2022/12/26 11:25:33;;;;;;;4.35;1.58;;;24.60;67.60;;;;;;5027915;28;20419;-87
2022/12/26 11:28:26;;;;;;;3.35;1.52;;;24.30;67.90;;;;;;5030517;28;20451;-84
2022/12/26 11:30:54;;;;;;;5.22;1.38;;;24.30;69.00;;;;;;5020467;28;20377;-86
2022/12/26 11:33:28;;;;;;;3.00;1.33;;;24.30;69.50;;;;;;5030449;28;20385;-86
2022/12/26 11:36:07;;;;;;;2.95;1.33;;;24.20;69.70;;;;;;5029884;28;20385;-86
2022/12/26 11:38:54;;;;;;;4.60;1.30;;;24.20;70.20;;;;;;5030312;28;20403;-86
2022/12/26 11:41:38;;;;;;;2.80;1.15;;;24.10;70.60;;;;;;5029383;28;20473;-86
2022/12/26 11:44:14;;;;;;;5.32;1.10;;;24.10;70.80;;;;;;5029187;28;20814;-84
2022/12/26 11:46:50;;;;;;;2.40;1.00;;;24.00;70.80;;;;;;5027443;28;20394;-85
2022/12/26 11:49:43;;;;;;;2.78;1.13;;;23.90;71.80;;;;;;5023970;28;20482;-85
2022/12/26 11:52:37;;;;;;;2.97;1.23;;;23.80;72.00;;;;;;4965563;28;20394;-85
2022/12/26 11:55:22;;;;;;;3.13;1.08;;;23.80;72.60;;;;;;4955205;28;20411;-85
2022/12/26 11:58:17;;;;;;;4.03;1.25;;;23.70;73.50;;;;;;4967012;28;20905;-85
2022/12/26 12:00:50;;;;;;;3.25;0.93;;;23.70;73.60;;;;;;4960982;28;20398;-85
2022/12/26 12:03:25;;;;;;;2.95;1.13;;;23.60;73.40;;;;;;4967607;28;20406;-85
2022/12/26 12:06:02;;;;;;;3.53;1.10;;;23.60;74.30;;;;;;4967406;28;20489;-88
2022/12/26 12:08:46;;;;;;;4.05;1.23;;;23.60;74.60;;;;;;4961402;28;20406;-84
2022/12/26 12:11:24;;;;;;;4.28;1.10;;;23.60;75.10;;;;;;4967153;28;20751;-83
2022/12/26 12:13:50;;;;;;;2.67;1.20;;;;;;;;;;4952631;28;20398;-83
2022/12/26 12:16:36;;;;;;;3.03;1.30;;;23.50;75.40;;;;;;4968503;28;20494;-85
2022/12/26 12:19:35;;;;;;;3.80;1.50;;;23.50;76.20;;;;;;4965833;28;20434;-84
2022/12/26 12:22:18;;;;;;;3.90;1.42;;;23.40;76.40;;;;;;4964221;28;20505;-84
2022/12/26 12:25:23;;;;;;;5.25;1.30;;;23.30;77.10;;;;;;4982582;28;20473;-84
2022/12/26 12:27:55;;;;;;;4.57;1.30;;;23.20;77.70;;;;;;4984357;28;20819;-86
2022/12/26 12:30:42;;;;;;;4.50;2.53;;;23.10;78.30;;;;;;4987837;28;20488;-85
2022/12/26 12:33:12;;;;;;;6.03;2.47;;;23.00;79.00;;;;;;4987428;28;20763;-84
2022/12/26 12:35:57;;;;;;;7.47;2.60;;;23.00;79.90;;;;;;4991588;28;20401;-84
2022/12/26 12:38:40;;;;;;;7.80;2.20;;;22.90;82.20;;;;;;4991371;28;20385;-84
2022/12/26 12:41:13;;;;;;;5.93;2.30;;;22.90;82.90;;;;;;4991664;28;20405;-84
2022/12/26 12:44:03;;;;;;;5.18;2.05;;;22.80;84.40;;;;;;4991949;28;20474;-84
2022/12/26 12:46:51;;;;;;;4.97;2.00;;;22.80;86.40;;;;;;4990371;28;20868;-85
2022/12/26 12:49:27;;;;;;;4.97;1.98;;;;;;;;;;4991527;28;20404;-85
2022/12/26 12:52:12;;;;;;;7.00;1.90;;;22.50;90.10;;;;;;4988440;28;20421;-85
2022/12/26 12:54:47;;;;;;;5.72;1.80;;;22.50;91.30;;;;;;4990947;28;20400;-85
2022/12/26 12:57:38;;;;;;;5.15;2.08;;;21.50;92.20;;;;;;4991925;28;20396;-85
2022/12/26 13:00:08;;;;;;;7.57;2.30;;;22.40;93.80;;;;;;5024555;28;20401;-85
2022/12/26 13:02:53;;;;;;;7.15;2.03;;;22.30;94.80;;;;;;5032039;28;20394;-85
2022/12/26 13:05:45;;;;;;;8.80;2.58;;;22.30;96.30;;;;;;5017092;28;20449;-85
2022/12/26 13:08:36;;;;;;;10.00;3.13;;;22.40;97.90;;;;;;5024772;28;20475;-85
2022/12/26 13:11:26;;;;;;;13.27;3.20;;;22.30;99.90;;;;;;5031566;28;20417;-84
2022/12/26 13:14:27;;;;;;;8.82;2.72;;;22.30;99.90;;;;;;5023627;28;20444;-85
2022/12/26 13:17:33;;;;;;;13.60;2.80;;;22.30;99.90;;;;;;5023595;28;20449;-83
2022/12/26 13:20:26;;;;;;;9.52;2.40;;;22.20;99.90;;;;;;4962785;28;20398;-84
2022/12/26 13:26:24;;;;;;;9.38;2.58;;;22.10;99.90;;;;;;4958962;28;20563;-84
2022/12/26 13:29:12;;;;;;;10.20;2.70;;;22.10;99.90;;;;;;4963221;28;20390;-85
2022/12/26 13:31:43;;;;;;;7.35;2.35;;;22.00;99.90;;;;;;4962772;28;20400;-85
2022/12/26 13:34:20;;;;;;;7.60;2.50;;;22.00;99.90;;;;;;4971725;28;20474;-85
2022/12/26 13:36:51;;;;;;;7.47;2.30;;;21.90;99.90;;;;;;4967303;28;20402;-84
2022/12/26 13:39:21;;;;;;;8.45;2.50;;;21.80;99.90;;;;;;4963970;28;20386;-85
2022/12/26 13:44:41;;;;;;;7.60;2.60;;;21.80;99.90;;;;;;4965940;28;20924;-84
2022/12/26 13:47:32;;;;;;;8.65;2.47;;;21.70;99.90;;;;;;4963035;28;20870;-85
2022/12/26 13:50:19;;;;;;;8.02;2.40;;;21.60;99.90;;;;;;4966522;28;20400;-85
2022/12/26 13:52:46;;;;;;;10.85;2.47;;;21.60;99.90;;;;;;4968693;28;20747;-85
2022/12/26 13:55:13;;;;;;;10.48;2.60;;;21.50;99.90;;;;;;4988131;28;20844;-84
2022/12/26 13:57:44;;;;;;;8.57;2.40;;;21.50;99.90;;;;;;5031025;28;20980;-85
2022/12/26 14:00:19;;;;;;;8.13;2.28;;;21.40;99.90;;;;;;5030489;28;20389;-85
2022/12/26 14:03:11;;;;;;;9.77;2.50;;;21.30;99.90;;;;;;5031002;28;20483;-85
2022/12/26 14:06:03;;;;;;;7.40;2.20;;;21.30;99.90;;;;;;5031971;28;20448;-85
2022/12/26 14:08:32;;;;;;;8.02;2.30;;;21.20;99.90;;;;;;5052119;28;20383;-85
2022/12/26 14:11:33;;;;;;;7.70;2.42;;;21.20;99.90;;;;;;5062855;28;20399;-85
2022/12/26 14:14:28;;;;;;;6.00;2.20;;;21.10;99.90;;;;;;5051320;28;20749;-85
2022/12/26 14:17:16;;;;;;;5.75;2.13;;;21.10;99.90;;;;;;5051742;28;20382;-85
2022/12/26 14:19:55;;;;;;;7.28;2.20;;;21.00;99.90;;;;;;5051080;28;20894;-85
2022/12/26 14:22:46;;;;;;;6.75;2.22;;;21.00;99.90;;;;;;5048984;28;20391;-85
2022/12/26 14:25:28;;;;;;;6.85;2.40;;;20.90;99.90;;;;;;5045457;28;20409;-85
2022/12/26 14:28:32;;;;;;;6.30;2.40;;;20.80;99.90;;;;;;5049641;28;20384;-85
2022/12/26 14:31:24;;;;;;;6.30;2.33;;;20.80;99.90;;;;;;5027570;28;20866;-85
2022/12/26 14:33:56;;;;;;;7.77;2.63;;;20.70;99.90;;;;;;5053989;28;20430;-85
2022/12/26 14:36:32;;;;;;;7.75;2.88;;;20.60;99.90;;;;;;5051020;28;20383;-85
2022/12/26 14:39:29;;;;;;;9.40;2.55;;;20.50;99.90;;;;;;5049143;28;20437;-85
2022/12/26 14:45:01;;;;;;;11.02;2.40;;;20.50;99.90;;;;;;4969246;28;20402;-85
2022/12/26 14:47:48;;;;;;;8.27;2.58;;;20.40;99.90;;;;;;4967588;28;20407;-85
2022/12/26 14:50:42;;;;;;;6.85;2.47;;;20.30;99.90;;;;;;4965648;28;20447;-86
2022/12/26 14:53:28;;;;;;;7.32;2.55;;;20.30;99.90;;;;;;4961118;28;20390;-85
2022/12/26 14:56:10;;;;;;;7.32;2.30;;;20.20;99.90;;;;;;4959034;28;20909;-85
2022/12/26 14:58:44;;;;;;;10.10;2.60;;;20.10;99.90;;;;;;4962330;28;20392;-85
2022/12/26 15:03:52;;;;;;;9.70;2.70;;;20.10;99.90;;;;;;4962392;28;20902;-85
2022/12/26 15:06:19;;;;;;;7.22;2.63;;;20.10;99.90;;;;;;4957245;28;20438;-84
2022/12/26 15:09:23;;;;;;;6.32;2.63;;;20.10;99.90;;;;;;4963501;28;20406;-84
2022/12/26 15:12:11;;;;;;;6.15;2.50;;;20.00;99.90;;;;;;4966980;28;20449;-84
2022/12/26 15:15:01;;;;;;;5.47;2.30;;;19.90;99.90;;;;;;4975019;28;20514;-84
2022/12/26 15:17:49;;;;;;;6.05;2.30;;;19.80;99.90;;;;;;4968297;28;20395;-84
2022/12/26 15:20:45;;;;;;;7.50;2.30;;;19.80;99.90;;;;;;5038052;28;20953;-85
2022/12/26 15:23:18;;;;;;;6.57;2.40;;;19.70;99.90;;;;;;5047897;28;20404;-84
2022/12/26 15:26:03;;;;;;;6.80;2.60;;;19.70;99.90;;;;;;5043518;28;20398;-84
2022/12/26 15:28:35;;;;;;;7.35;2.70;;;19.60;99.90;;;;;;5039418;28;20502;-84
2022/12/26 15:31:36;;;;;;;8.68;2.60;;;19.60;99.90;;;;;;5045342;28;20388;-85
2022/12/26 15:34:37;;;;;;;6.43;2.38;;;19.60;99.90;;;;;;5044851;28;20416;-85
2022/12/26 15:37:14;;;;;;;8.00;2.40;;;19.50;99.90;;;;;;5049989;28;20376;-84
2022/12/26 15:40:32;;;;;;;7.80;2.60;;;19.50;99.90;;;;;;5044850;28;20367;-84
2022/12/26 15:43:21;;;;;;;8.50;2.63;;;19.50;99.90;;;;;;4968736;28;20457;-84
2022/12/26 15:46:05;;;;;;;6.15;2.70;;;19.50;99.90;;;;;;4965191;28;20477;-84
2022/12/26 15:48:56;;;;;;;8.23;2.40;;;19.30;99.90;;;;;;4969168;28;20424;-85
2022/12/26 15:51:50;;;;;;;8.55;2.58;;;19.30;99.90;;;;;;4964677;28;20396;-84